Архив погоды в Зилаире

Метеограмма Зилаир
Понедельник, 22 Октября
Время местн. Темп Ветер Видим Явления Облачность нижн/средн/верх Атм. давл. Влжн Точка росы ВНГО R Сост. почвы Tg s
Напр Скр Прв ур.ст ур.м изм
11:00 -0.3° штиль 0 - 20 км - переменная облачность 724 772 +0.7 82% -3° более 2.5 км - - - -
08:00 -6.6° С,С-В 2 - 10 км - облачно с прояснениями 723 772 +0.5 92% -7.7° - 0 Сухая (без трещин) - -
05:00 -6.1° штиль 0 - 10 км - переменная облачность 722 772 +0.7 92% -7.2° - - - - -
02:00 -4.8° С,С-В 1 - 10 км - переменная облачность 722 771 +0.5 92% -5.9° более 2.5 км - - - -
Воскресенье, 21 Октября
Время местн. Темп Ветер Видим Явления Облачность нижн/средн/верх Атм. давл. Влжн Точка росы ВНГО R Сост. почвы Tg s
Напр Скр Прв ур.ст ур.м изм
20:00 +1.5° С,С-В 2 - 10 км - ясно 721 768 +1.6 69% -3.6° более 2.5 км 0 - - -
17:00 +6.8° С 3 - 20 км - переменная облачность 719 766 +0.8 48% -3.5° более 2.5 км - - - -
14:00 +7.1° С 3 - 20 км - облачно с прояснениями 718 765 +0.9 53% -1.9° более 2.5 км - - - -
11:00 +5.6° С 4 - 10 км - облачно с прояснениями 717 764 +1.4 65% -0.5° 1 км - - - -
08:00 +3.8° С-З 1 - 10 км - облачно с прояснениями 716 763 +0.9 89% +2.2° 1 км 0 Сухая (без трещин) - -
05:00 +5.7° З,С-З 2 - 10 км - ясно 715 762 +0.5 65% -0.4° более 2.5 км - - - -
02:00 +8.2° З 2 - 10 км - облачно с прояснениями 715 761 +0.4 45% -3.1° - - - - -
Суббота, 20 Октября
Время местн. Темп Ветер Видим Явления Облачность нижн/средн/верх Атм. давл. Влжн Точка росы ВНГО R Сост. почвы Tg s
Напр Скр Прв ур.ст ур.м изм
23:00 +8.7° З 2 - 10 км - переменная облачность 715 761 -0.5 33% -6.7° - - - - -
20:00 +10.2° З 4 - 10 км - переменная облачность 715 762 +0.2 25% -9° - 0 - - -
17:00 +12.5° З 5 - 20 км - облачно с прояснениями 715 761 -0.8 27% -6° - - - - -
14:00 +12.3° З 5 10 20 км - облачно с прояснениями 716 762 -0.8 38% -1.6° - - - - -
11:00 +8.1° З,Ю-З 4 - 20 км - преимущественно облачно 717 763 +0.1 58% +0.4° - - - - -
08:00 +2.7° Ю 3 - 10 км - переменная облачность 717 764 -0.3 82% -0.1° - 0 Влажная (без луж) - -
05:00 +3.8° Ю,Ю-З 2 - 10 км - ясно 717 764 -0.5 83% +1.2° более 2.5 км - - - -
02:00 +6.7° З 2 - 10 км - ясно 718 764 0 71% +1.8° более 2.5 км - - - -
Пятница, 19 Октября
Время местн. Темп Ветер Видим Явления Облачность нижн/средн/верх Атм. давл. Влжн Точка росы ВНГО R Сост. почвы Tg s
Напр Скр Прв ур.ст ур.м изм
23:00 +8.5° З 3 - 10 км - ясно 718 764 -0.5 68% +2.9° более 2.5 км - - - -
20:00 +9.9° З 3 - 10 км - переменная облачность 718 764 +0.3 64% +3.4° - 0 - - -
17:00 +11.1° З,С-З 4 - 20 км - переменная облачность 718 764 -0.3 57% +2.9° - - - - -
14:00 +9.2° З 4 - 20 км - преимущественно облачно 718 764 -0.7 59% +1.6° 1 км - - - -
11:00 +6.9° З 2 - 20 км - переменная облачность 719 766 0 60% -0.4° - - - - -
08:00 +1.3° Ю,Ю-З 2 - 10 км - облачно 719 767 -0.3 80% -1.7° 1 км 0 Замерзшая -
05:00 -0.1° Ю,Ю-З 2 - 10 км - облачно 719 767 -0.2 89% -1.7° - - - - -